This is the latest recevied weather packets stored in our database for station/object KK7MLS-13. If no packets are shown the sender has not sent any weather packets the latest 10 day(s).
| Time | Temp. | Humidity | Pressure | Rain* | Wind** | Luminosity | Snow |
|---|---|---|---|---|---|---|---|
| 1788050910 | 23.89° C | 40% | 1019.1 hPa | 0 mm | - | 113 W/m² | - |
| 1788050606 | 23.33° C | 40% | 1019 hPa | 0 mm | - | 197 W/m² | - |
| 1788050304 | 23.33° C | 40% | 1019.1 hPa | 0 mm | - | 211 W/m² | - |
| 1788049999 | 23.89° C | 40% | 1019 hPa | 0 mm | - | 228 W/m² | - |
| 1788049696 | 23.89° C | 41% | 1019.1 hPa | 0 mm | - | 152 W/m² | - |
| 1788049393 | 23.89° C | 40% | 1019.1 hPa | 0 mm | - | 208 W/m² | - |
| 1788049088 | 22.22° C | 45% | 1018.9 hPa | 0 mm | - | 337 W/m² | - |
| 1788048783 | 21.11° C | 48% | 1019 hPa | 0 mm | - | 333 W/m² | - |
| 1788048482 | 21.11° C | 46% | 1019 hPa | 0 mm | - | 88 W/m² | - |
| 1788048181 | 21.67° C | 46% | 1018.9 hPa | 0 mm | - | 75 W/m² | - |
| 1788047878 | 21.67° C | 46% | 1018.9 hPa | 0 mm | - | 80 W/m² | - |
| 1788047573 | 21.67° C | 44% | 1018.9 hPa | 0 mm | - | 91 W/m² | - |
| 1788047273 | 21.67° C | 46% | 1018.9 hPa | 0 mm | - | 100 W/m² | - |
| 1788046968 | 22.22° C | 43% | 1018.8 hPa | 0 mm | - | 97 W/m² | - |
| 1788046666 | 22.78° C | 42% | 1018.9 hPa | 0 mm | - | 90 W/m² | - |
| 1788046362 | 22.22° C | 45% | 1019 hPa | 0 mm | - | 135 W/m² | - |
| 1788046059 | 22.22° C | 46% | 1019 hPa | 0 mm | - | 111 W/m² | - |
| 1788045755 | 22.78° C | 45% | 1019.1 hPa | 0 mm | - | 82 W/m² | - |
| 1788045449 | 23.33° C | 43% | 1018.8 hPa | 0 mm | - | 87 W/m² | - |
| 1788045145 | 23.33° C | 42% | 1018.9 hPa | 0 mm | - | 141 W/m² | - |
| 1788044844 | 22.78° C | 45% | 1019.1 hPa | 0 mm | - | 133 W/m² | - |
| 1788044539 | 22.22° C | 46% | 1019 hPa | 0 mm | - | 137 W/m² | - |
| 1788044238 | 21.67° C | 47% | 1019.1 hPa | 0 mm | - | 205 W/m² | - |
| 1788043934 | 21.67° C | 47% | 1019.3 hPa | 0 mm | - | 135 W/m² | - |
| 1788043629 | 21.11° C | 48% | 1019.3 hPa | 0 mm | - | 131 W/m² | - |
* Rain latest hour (hover to see other rain measurements)
** Current wind speed in m/s (hover to see current wind gust speed)